Time;durP1;ratioP1;P1;durP2;ratioP2;P2;SDS_P1;SDS_P2;PMS_P1;PMS_P2;Temp;Humidity;BMP_temperature;BMP_pressure;BME280_temperature;BME280_humidity;BME280_pressure;Samples;Min_cycle;Max_cycle;Signal;HPM_P1;HPM_P2
2023/07/08 00:01:01;;;;;;;6.87;3.10;;;;;;;;;;5044125;28;20415;-80
2023/07/08 00:03:26;;;;;;;8.73;3.80;;;;;;;;;;5033663;28;20179;-80
2023/07/08 00:05:55;;;;;;;5.07;3.60;;;;;;;;;;5033705;28;20923;-84
2023/07/08 00:08:22;;;;;;;3.40;2.43;;;;;;;;;;5032328;28;20173;-78
2023/07/08 00:10:48;;;;;;;5.43;3.60;;;;;;;;;;5032933;28;20982;-86
2023/07/08 00:13:14;;;;;;;5.03;3.20;;;;;;;;;;5033492;28;20532;-79
2023/07/08 00:15:40;;;;;;;4.00;2.60;;;;;;;;;;5033372;28;20511;-82
2023/07/08 00:18:11;;;;;;;4.97;3.30;;;;;;;;;;5032127;28;20420;-82
2023/07/08 00:20:42;;;;;;;4.00;2.90;;;;;;;;;;5031577;28;20471;-79
2023/07/08 00:23:12;;;;;;;5.17;3.10;;;;;;;;;;5033338;28;20418;-79
2023/07/08 00:25:38;;;;;;;5.80;3.33;;;;;;;;;;5031579;28;20418;-88
2023/07/08 00:28:12;;;;;;;3.93;3.30;;;;;;;;;;5033260;28;20447;-86
2023/07/08 00:30:38;;;;;;;3.30;2.70;;;;;;;;;;5033258;28;20758;-84
2023/07/08 00:33:06;;;;;;;6.10;2.87;;;;;;;;;;5033132;28;20433;-78
2023/07/08 00:35:37;;;;;;;4.90;2.83;;;;;;;;;;5041053;28;20264;-85
2023/07/08 00:38:12;;;;;;;2.90;2.60;;;;;;;;;;5052832;28;20422;-84
2023/07/08 00:40:39;;;;;;;6.60;3.40;;;;;;;;;;5052801;28;20411;-87
2023/07/08 00:43:06;;;;;;;5.07;3.40;;;;;;;;;;5051780;28;20974;-79
2023/07/08 00:45:40;;;;;;;4.97;3.13;;;;;;;;;;5052710;28;20411;-79
2023/07/08 00:48:11;;;;;;;2.97;2.67;;;;;;;;;;5052540;28;20925;-78
2023/07/08 00:50:37;;;;;;;3.70;2.83;;;;;;;;;;5052735;28;20403;-79
2023/07/08 00:53:22;;;;;;;4.10;2.50;;;;;;;;;;5052713;28;20483;-79
2023/07/08 00:55:48;;;;;;;4.87;3.80;;;;;;;;;;5050668;28;20176;-78
2023/07/08 00:58:15;;;;;;;5.40;3.57;;;;;;;;;;5051308;28;20430;-79
2023/07/08 01:00:41;;;;;;;5.63;3.47;;;;;;;;;;5041711;28;20457;-81
2023/07/08 01:03:07;;;;;;;3.23;2.67;;;;;;;;;;5032668;28;20502;-81
2023/07/08 01:05:34;;;;;;;5.83;3.00;;;;;;;;;;5031344;28;20535;-78
2023/07/08 01:08:06;;;;;;;5.77;3.80;;;;;;;;;;5032425;28;20258;-79
2023/07/08 01:10:39;;;;;;;4.40;2.57;;;;;;;;;;5032119;28;20466;-88
2023/07/08 01:13:07;;;;;;;4.20;3.10;;;;;;;;;;5032565;28;20474;-78
2023/07/08 01:15:35;;;;;;;4.70;3.50;;;;;;;;;;5031481;28;20922;-78
2023/07/08 01:18:02;;;;;;;5.87;3.30;;;;;;;;;;5041156;28;20499;-78
2023/07/08 01:20:27;;;;;;;5.03;3.80;;;;;;;;;;5052381;28;20403;-78
2023/07/08 01:22:53;;;;;;;5.47;3.87;;;;;;;;;;5051032;28;20763;-78
2023/07/08 01:25:19;;;;;;;5.37;3.67;;;;;;;;;;5051699;28;20181;-81
2023/07/08 01:27:47;;;;;;;5.43;2.70;;;;;;;;;;5052220;28;20182;-78
2023/07/08 01:30:14;;;;;;;2.87;2.47;;;;;;;;;;5052237;28;20418;-81
2023/07/08 01:32:43;;;;;;;6.73;3.60;;;;;;;;;;5053356;28;20477;-78
2023/07/08 01:35:10;;;;;;;6.97;3.43;;;;;;;;;;5054944;28;20450;-81
2023/07/08 01:37:57;;;;;;;7.20;3.83;;;;;;;;;;5056095;28;20508;-80
2023/07/08 01:40:25;;;;;;;4.87;3.33;;;;;;;;;;5054409;28;20430;-78
2023/07/08 01:42:51;;;;;;;4.40;3.20;;;;;;;;;;5056064;28;20492;-77
2023/07/08 01:45:18;;;;;;;5.93;3.57;;;;;;;;;;5056090;28;20405;-81
2023/07/08 01:47:52;;;;;;;4.67;3.33;;;;;;;;;;5055862;28;20425;-78
2023/07/08 01:50:19;;;;;;;4.73;3.50;;;;;;;;;;5055980;28;20759;-78
2023/07/08 01:52:44;;;;;;;5.40;3.13;;;;;;;;;;5054596;28;20916;-79
2023/07/08 01:55:10;;;;;;;6.20;3.40;;;;;;;;;;5055671;28;20414;-78
2023/07/08 01:57:36;;;;;;;4.60;3.33;;;;;;;;;;5055756;28;20406;-78
2023/07/08 02:00:02;;;;;;;5.10;3.43;;;;;;;;;;5055768;28;20397;-78
2023/07/08 02:02:28;;;;;;;4.03;3.20;;;;;;;;;;5054692;28;20177;-78
2023/07/08 02:04:54;;;;;;;4.47;3.50;;;;;;;;;;5055728;28;20468;-79
2023/07/08 02:07:20;;;;;;;4.57;3.50;;;;;;;;;;5055319;28;20935;-79
2023/07/08 02:09:46;;;;;;;4.97;3.10;;;;;;;;;;5045559;28;20267;-80
2023/07/08 02:12:12;;;;;;;5.70;3.57;;;;;;;;;;5035446;28;20569;-80
2023/07/08 02:14:38;;;;;;;5.37;3.80;;;;;;;;;;5035796;28;20171;-80
2023/07/08 02:17:05;;;;;;;3.10;2.80;;;;;;;;;;5048148;28;20914;-80
2023/07/08 02:19:31;;;;;;;3.97;3.00;;;;;;;;;;5055452;28;20409;-81
2023/07/08 02:21:57;;;;;;;4.40;2.80;;;;;;;;;;5054094;28;20491;-80
2023/07/08 02:24:23;;;;;;;7.53;3.30;;;;;;;;;;5048109;28;20421;-80
2023/07/08 02:26:49;;;;;;;4.43;3.53;;;;;;;;;;5034313;28;20425;-81
2023/07/08 02:29:15;;;;;;;4.37;2.73;;;;;;;;;;5035528;28;20463;-81
2023/07/08 02:31:41;;;;;;;4.67;2.97;;;;;;;;;;5039244;28;20479;-82
2023/07/08 02:34:07;;;;;;;4.27;3.07;;;;;;;;;;5035379;28;20178;-80
2023/07/08 02:36:34;;;;;;;6.30;3.20;;;;;;;;;;5035366;28;20177;-81
2023/07/08 02:39:00;;;;;;;4.13;3.33;;;;;;;;;;5035329;28;20606;-81
2023/07/08 02:41:26;;;;;;;4.47;3.30;;;;;;;;;;5034907;28;20517;-81
2023/07/08 02:43:52;;;;;;;3.90;3.47;;;;;;;;;;5034723;28;20177;-80
2023/07/08 02:46:18;;;;;;;6.30;3.87;;;;;;;;;;5035239;28;20619;-80
2023/07/08 02:48:44;;;;;;;3.90;2.90;;;;;;;;;;5035072;28;20424;-80
2023/07/08 02:51:09;;;;;;;5.73;3.53;;;;;;;;;;5034965;28;21014;-82
2023/07/08 02:53:35;;;;;;;4.87;3.73;;;;;;;;;;5017358;28;20182;-80
2023/07/08 02:56:04;;;;;;;8.63;4.60;;;;;;;;;;5034803;28;20678;-80
2023/07/08 02:58:30;;;;;;;4.17;3.30;;;;;;;;;;5034964;28;20474;-81
2023/07/08 03:01:00;;;;;;;5.57;3.60;;;;;;;;;;5034930;28;20740;-80
2023/07/08 03:03:28;;;;;;;4.23;3.83;;;;;;;;;;5033643;28;20502;-79
2023/07/08 03:05:58;;;;;;;4.20;3.80;;;;;;;;;;5034814;28;20414;-79
2023/07/08 03:08:25;;;;;;;6.00;3.43;;;;;;;;;;5034860;28;20402;-79
2023/07/08 03:10:55;;;;;;;4.17;3.83;;;;;;;;;;5034159;28;20475;-80
2023/07/08 03:13:21;;;;;;;5.20;3.50;;;;;;;;;;5034768;28;20418;-79
2023/07/08 03:15:46;;;;;;;3.80;3.00;;;;;;;;;;5037800;28;20415;-79
2023/07/08 03:18:12;;;;;;;3.77;3.40;;;;;;;;;;5039794;28;20186;-79
2023/07/08 03:20:44;;;;;;;4.40;3.70;;;;;;;;;;5034609;28;20170;-81
2023/07/08 03:23:10;;;;;;;4.83;3.80;;;;;;;;;;5034460;28;20447;-80
2023/07/08 03:25:37;;;;;;;4.53;3.60;;;;;;;;;;5044573;28;20429;-80
2023/07/08 03:28:03;;;;;;;4.97;4.07;;;;;;;;;;5054276;28;20931;-80
2023/07/08 03:30:29;;;;;;;4.10;3.37;;;;;;;;;;5054207;28;20437;-80
2023/07/08 03:32:55;;;;;;;4.20;2.90;;;;;;;;;;5052974;28;20527;-81
2023/07/08 03:35:22;;;;;;;8.13;3.33;;;;;;;;;;5054126;28;20416;-79
2023/07/08 03:37:48;;;;;;;6.10;3.10;;;;;;;;;;5054021;28;20425;-81
2023/07/08 03:40:14;;;;;;;3.40;3.10;;;;;;;;;;5053449;28;20407;-81
2023/07/08 03:42:39;;;;;;;5.20;3.80;;;;;;;;;;5053122;28;20407;-81
2023/07/08 03:45:06;;;;;;;5.20;3.70;;;;;;;;;;5053896;28;20183;-80
2023/07/08 03:47:32;;;;;;;4.30;3.20;;;;;;;;;;5053814;28;20180;-81
2023/07/08 03:49:57;;;;;;;4.03;2.97;;;;;;;;;;5053860;28;20954;-81
2023/07/08 03:52:23;;;;;;;5.83;3.40;;;;;;;;;;5053648;28;20216;-81
2023/07/08 03:54:49;;;;;;;5.17;4.23;;;;;;;;;;5052814;28;20508;-82
2023/07/08 03:57:22;;;;;;;4.00;2.90;;;;;;;;;;5053549;28;20420;-82
2023/07/08 03:59:47;;;;;;;3.70;2.80;;;;;;;;;;5053521;28;20580;-82
2023/07/08 04:02:16;;;;;;;4.47;4.03;;;;;;;;;;5053619;28;20409;-81
2023/07/08 04:04:46;;;;;;;5.23;3.50;;;;;;;;;;5053560;28;20416;-81
2023/07/08 04:07:12;;;;;;;4.23;3.50;;;;;;;;;;5053488;28;20440;-81
2023/07/08 04:09:38;;;;;;;2.83;2.50;;;;;;;;;;5053208;28;20519;-81
2023/07/08 04:12:04;;;;;;;3.97;3.40;;;;;;;;;;5053269;28;20320;-82
2023/07/08 04:14:30;;;;;;;4.93;3.43;;;;;;;;;;5053428;28;20174;-82
2023/07/08 04:16:58;;;;;;;4.63;3.53;;;;;;;;;;5053414;28;20786;-82
2023/07/08 04:19:24;;;;;;;3.43;3.10;;;;;;;;;;5053278;28;20418;-82
2023/07/08 04:21:50;;;;;;;3.23;2.57;;;;;;;;;;5050025;28;20486;-82
2023/07/08 04:24:17;;;;;;;2.93;2.63;;;;;;;;;;5052012;28;20424;-81
2023/07/08 04:26:46;;;;;;;4.90;3.70;;;;;;;;;;5049484;28;20477;-80
2023/07/08 04:29:15;;;;;;;5.47;2.87;;;;;;;;;;5052573;28;20393;-81
2023/07/08 04:31:41;;;;;;;5.10;2.80;;;;;;;;;;5048431;28;20462;-80
2023/07/08 04:34:08;;;;;;;8.83;3.23;;;;;;;;;;5048834;28;20487;-80
2023/07/08 04:36:34;;;;;;;4.43;3.90;;;;;;;;;;5051579;28;20513;-80
2023/07/08 04:39:00;;;;;;;4.27;2.93;;;;;;;;;;5052525;28;20773;-80
2023/07/08 04:41:26;;;;;;;4.43;3.33;;;;;;;;;;5052796;28;20471;-80
2023/07/08 04:43:57;;;;;;;4.60;2.77;;;;;;;;;;5051527;28;20452;-80
2023/07/08 04:46:30;;;;;;;4.27;2.83;;;;;;;;;;5051471;28;20843;-80
2023/07/08 04:49:00;;;;;;;5.53;2.80;;;;;;;;;;5051421;28;20424;-80
2023/07/08 04:51:26;;;;;;;4.30;2.90;;;;;;;;;;5050115;28;20470;-80
2023/07/08 04:53:52;;;;;;;2.90;2.30;;;;;;;;;;5050952;28;20552;-80
2023/07/08 04:56:18;;;;;;;4.07;2.80;;;;;;;;;;5052549;28;20628;-80
2023/07/08 04:58:47;;;;;;;4.53;2.40;;;;;;;;;;5052450;28;20167;-80
2023/07/08 05:01:13;;;;;;;3.23;2.20;;;;;;;;;;5052445;28;20406;-79
2023/07/08 05:03:39;;;;;;;3.00;2.13;;;;;;;;;;5051008;28;20934;-80
2023/07/08 05:06:05;;;;;;;5.07;2.30;;;;;;;;;;5052294;28;20181;-80
2023/07/08 05:08:31;;;;;;;5.10;1.60;;;;;;;;;;5052359;28;20422;-80
2023/07/08 05:10:58;;;;;;;3.07;1.73;;;;;;;;;;5051738;28;20698;-80
2023/07/08 05:13:23;;;;;;;2.80;2.13;;;;;;;;;;5050128;28;20243;-81
2023/07/08 05:15:49;;;;;;;2.30;1.80;;;;;;;;;;5052848;28;20401;-81
2023/07/08 05:18:15;;;;;;;3.73;2.27;;;;;;;;;;5052794;28;20455;-80
2023/07/08 05:20:43;;;;;;;2.93;1.87;;;;;;;;;;5052781;28;20259;-82
2023/07/08 05:23:09;;;;;;;3.17;2.23;;;;;;;;;;5052870;28;20181;-80
2023/07/08 05:25:35;;;;;;;3.67;2.40;;;;;;;;;;5052467;28;20463;-80
2023/07/08 05:28:01;;;;;;;2.23;1.90;;;;;;;;;;5046380;28;20439;-80
2023/07/08 05:30:27;;;;;;;3.87;2.33;;;;;;;;;;5040601;28;20424;-80
2023/07/08 05:32:53;;;;;;;3.07;1.50;;;;;;;;;;5032644;28;20943;-80
2023/07/08 05:35:19;;;;;;;2.37;1.67;;;;;;;;;;5031495;28;20185;-82
2023/07/08 05:37:46;;;;;;;3.80;2.03;;;;;;;;;;5032813;28;20417;-82
2023/07/08 05:40:12;;;;;;;3.03;1.50;;;;;;;;;;5032320;28;20269;-81
2023/07/08 05:42:38;;;;;;;3.43;2.00;;;;;;;;;;5032683;28;20824;-81
2023/07/08 05:45:10;;;;;;;3.40;1.80;;;;;;;;;;5032754;28;20443;-82
2023/07/08 05:47:35;;;;;;;3.17;2.50;;;;;;;;;;5032785;28;20177;-81
2023/07/08 05:50:01;;;;;;;3.70;1.60;;;;;;;;;;5032678;28;20413;-82
2023/07/08 05:52:27;;;;;;;2.70;1.33;;;;;;;;;;5032546;28;20217;-82
2023/07/08 05:54:54;;;;;;;3.60;2.10;;;;;;;;;;5032278;28;20400;-82
2023/07/08 05:57:20;;;;;;;2.90;1.80;;;;;;;;;;5032607;28;20496;-82
2023/07/08 05:59:46;;;;;;;5.53;2.00;;;;;;;;;;5032591;28;20501;-82
2023/07/08 06:02:12;;;;;;;6.47;1.73;;;;;;;;;;5031303;28;20530;-81
2023/07/08 06:04:39;;;;;;;4.73;1.70;;;;;;;;;;5032520;28;20178;-82
2023/07/08 06:07:05;;;;;;;3.27;1.97;;;;;;;;;;5032395;28;20413;-82
2023/07/08 06:09:31;;;;;;;3.10;2.10;;;;;;;;;;5032199;28;20422;-82
2023/07/08 06:11:57;;;;;;;3.30;1.90;;;;;;;;;;5032199;28;20482;-81
2023/07/08 06:14:23;;;;;;;2.70;1.60;;;;;;;;;;5032384;28;20265;-81
2023/07/08 06:16:49;;;;;;;2.97;1.53;;;;;;;;;;5032528;28;20430;-82
2023/07/08 06:19:16;;;;;;;4.00;1.47;;;;;;;;;;5034307;28;20425;-81
2023/07/08 06:21:42;;;;;;;2.77;1.57;;;;;;;;;;5036032;28;20411;-82
2023/07/08 06:24:08;;;;;;;2.57;1.57;;;;;;;;;;5035541;28;20423;-82
2023/07/08 06:26:34;;;;;;;3.30;1.50;;;;;;;;;;5035972;28;20447;-82
2023/07/08 06:29:00;;;;;;;4.33;2.00;;;;;;;;;;5035849;28;20419;-82
2023/07/08 06:31:26;;;;;;;1.87;1.30;;;;;;;;;;5035766;28;20466;-82
2023/07/08 06:33:52;;;;;;;3.83;1.97;;;;;;;;;;5035828;28;20631;-81
2023/07/08 06:36:18;;;;;;;3.80;1.87;;;;;;;;;;5038334;28;20192;-82
2023/07/08 06:38:44;;;;;;;2.93;1.63;;;;;;;;;;5050789;28;20258;-80
2023/07/08 06:41:10;;;;;;;3.10;1.50;;;;;;;;;;5048856;28;20231;-80
2023/07/08 06:43:38;;;;;;;3.57;1.70;;;;;;;;;;5042201;28;20201;-80
2023/07/08 06:46:06;;;;;;;2.60;1.87;;;;;;;;;;5043029;28;20175;-80
2023/07/08 06:48:32;;;;;;;2.53;1.73;;;;;;;;;;5044218;28;20430;-80
2023/07/08 06:50:58;;;;;;;3.10;1.40;;;;;;;;;;5034022;28;20464;-81
2023/07/08 06:53:24;;;;;;;3.63;1.50;;;;;;;;;;5038266;28;20276;-80
2023/07/08 06:55:50;;;;;;;2.10;1.90;;;;;;;;;;5049654;28;20511;-80
2023/07/08 06:58:16;;;;;;;1.97;1.20;;;;;;;;;;5055021;28;20438;-80
2023/07/08 07:00:43;;;;;;;4.50;1.57;;;;;;;;;;5053844;28;20476;-80
2023/07/08 07:03:09;;;;;;;2.33;1.60;;;;;;;;;;5054597;28;20548;-80
2023/07/08 07:05:37;;;;;;;2.20;1.63;;;;;;;;;;5053253;28;20507;-81
2023/07/08 07:08:04;;;;;;;2.77;1.53;;;;;;;;;;5054728;28;20427;-81
2023/07/08 07:10:30;;;;;;;1.80;1.00;;;;;;;;;;5054472;28;20981;-80
2023/07/08 07:12:56;;;;;;;1.90;1.53;;;;;;;;;;5054894;28;20468;-81
2023/07/08 07:15:22;;;;;;;2.50;1.50;;;;;;;;;;5054991;28;21177;-81
2023/07/08 07:17:48;;;;;;;4.50;1.30;;;;;;;;;;5054817;28;20255;-81
2023/07/08 07:20:14;;;;;;;2.07;1.37;;;;;;;;;;5054826;28;20202;-81
2023/07/08 07:22:40;;;;;;;2.17;1.10;;;;;;;;;;5053488;28;20178;-81
2023/07/08 07:25:06;;;;;;;1.50;1.03;;;;;;;;;;5054369;28;20181;-81
2023/07/08 07:27:32;;;;;;;4.17;1.47;;;;;;;;;;5054606;28;20170;-81
2023/07/08 07:30:01;;;;;;;2.20;1.00;;;;;;;;;;5054668;28;20420;-81
2023/07/08 07:32:28;;;;;;;2.30;0.97;;;;;;;;;;5054428;28;20259;-83
2023/07/08 07:34:54;;;;;;;1.97;1.50;;;;;;;;;;5054437;28;20436;-82
2023/07/08 07:37:20;;;;;;;3.00;1.37;;;;;;;;;;5054511;28;20415;-83
2023/07/08 07:39:47;;;;;;;2.80;0.90;;;;;;;;;;5054099;28;20918;-83
2023/07/08 07:42:14;;;;;;;1.63;1.10;;;;;;;;;;5054402;28;20420;-83
2023/07/08 07:44:40;;;;;;;3.53;1.07;;;;;;;;;;5053046;28;20779;-82
2023/07/08 07:47:06;;;;;;;1.73;1.03;;;;;;;;;;5053005;28;20416;-84
2023/07/08 07:49:32;;;;;;;1.93;0.83;;;;;;;;;;5054124;28;20998;-84
2023/07/08 07:51:58;;;;;;;2.60;0.90;;;;;;;;;;5054076;28;20516;-82
2023/07/08 07:54:25;;;;;;;1.90;1.27;;;;;;;;;;5053764;28;20686;-83
2023/07/08 07:56:51;;;;;;;1.73;1.23;;;;;;;;;;5054075;28;20170;-80
2023/07/08 07:59:17;;;;;;;2.10;1.20;;;;;;;;;;5054030;28;20408;-80
2023/07/08 08:01:43;;;;;;;1.90;0.90;;;;;;;;;;5054025;28;20411;-78
2023/07/08 08:04:09;;;;;;;2.20;1.63;;;;;;;;;;5053891;28;20250;-78
2023/07/08 08:06:35;;;;;;;1.50;1.07;;;;;;;;;;5053883;28;20184;-79
2023/07/08 08:09:01;;;;;;;2.07;1.03;;;;;;;;;;5053570;28;20405;-78
2023/07/08 08:11:27;;;;;;;3.07;1.20;;;;;;;;;;5053580;28;20240;-78
2023/07/08 08:13:53;;;;;;;2.27;1.47;;;;;;;;;;5053804;28;20174;-79
2023/07/08 08:16:20;;;;;;;4.33;1.43;;;;;;;;;;5053728;28;20182;-81
2023/07/08 08:18:46;;;;;;;1.93;1.43;;;;;;;;;;5053623;28;20760;-80
2023/07/08 08:21:12;;;;;;;1.40;1.00;;;;;;;;;;5053595;28;20470;-80
2023/07/08 08:23:38;;;;;;;2.47;1.33;;;;;;;;;;5053320;28;20214;-81
2023/07/08 08:26:03;;;;;;;1.83;1.63;;;;;;;;;;5051643;28;20303;-81
2023/07/08 08:28:29;;;;;;;1.83;1.43;;;;;;;;;;5043792;28;20598;-81
2023/07/08 08:30:55;;;;;;;2.53;1.10;;;;;;;;;;5033574;28;20186;-79
2023/07/08 08:33:21;;;;;;;2.80;1.20;;;;;;;;;;5033499;28;20189;-79
2023/07/08 08:35:47;;;;;;;2.03;1.20;;;;;;;;;;5037789;28;20178;-80
2023/07/08 08:38:13;;;;;;;4.63;1.40;;;;;;;;;;5052367;28;20412;-79
2023/07/08 08:40:40;;;;;;;2.43;1.40;;;;;;;;;;5052982;28;20535;-79
2023/07/08 08:43:08;;;;;;;2.80;1.47;;;;;;;;;;5052691;28;20177;-80
2023/07/08 08:45:41;;;;;;;3.70;1.70;;;;;;;;;;5051762;28;20896;-79
2023/07/08 08:48:11;;;;;;;2.27;1.40;;;;;;;;;;5052630;28;20458;-79
2023/07/08 08:50:50;;;;;;;1.90;1.40;;;;;;;;;;5052809;28;20506;-79
2023/07/08 08:53:17;;;;;;;1.90;1.47;;;;;;;;;;5051508;28;20423;-79
2023/07/08 08:55:43;;;;;;;2.13;1.27;;;;;;;;;;5052619;28;20919;-80
2023/07/08 08:58:32;;;;;;;1.30;1.10;;;;;;;;;;5052718;28;20412;-79
2023/07/08 09:01:02;;;;;;;2.97;1.60;;;;;;;;;;5052504;28;20770;-77
2023/07/08 09:03:49;;;;;;;2.90;1.37;;;;;;;;;;5052582;28;20411;-76
2023/07/08 09:06:18;;;;;;;1.43;1.27;;;;;;;;;;5048502;28;20816;-76
2023/07/08 09:08:44;;;;;;;1.40;1.23;;;;;;;;;;5052437;28;20407;-78
2023/07/08 09:11:20;;;;;;;2.20;1.50;;;;;;;;;;5052620;28;21051;-78
2023/07/08 09:13:46;;;;;;;2.33;1.70;;;;;;;;;;5052783;28;20312;-78
2023/07/08 09:16:30;;;;;;;1.27;0.97;;;;;;;;;;5052586;28;20404;-79
2023/07/08 09:19:15;;;;;;;3.00;0.80;;;;;;;;;;5051572;28;20396;-78
2023/07/08 09:21:48;;;;;;;2.10;1.60;;;;;;;;;;5048676;28;20426;-78
2023/07/08 09:24:21;;;;;;;4.07;1.83;;;;;;;;;;5052279;28;20408;-78
2023/07/08 09:26:48;;;;;;;3.50;1.70;;;;;;;;;;5052303;28;20401;-77
2023/07/08 09:29:14;;;;;;;1.40;1.10;;;;;;;;;;5046808;28;20917;-78
2023/07/08 09:31:42;;;;;;;1.80;1.50;;;;;;;;;;5049362;28;20469;-77
2023/07/08 09:34:18;;;;;;;3.80;1.90;;;;;;;;;;5052149;28;20209;-77
2023/07/08 09:36:46;;;;;;;2.20;1.00;;;;;;;;;;5046862;28;20419;-77
2023/07/08 09:39:17;;;;;;;1.97;1.80;;;;;;;;;;5048150;28;20424;-77
2023/07/08 09:41:44;;;;;;;2.17;1.47;;;;;;;;;;5051721;28;20408;-77
2023/07/08 09:44:14;;;;;;;2.33;1.40;;;;;;;;;;5050413;28;20499;-77
2023/07/08 09:46:41;;;;;;;2.27;1.70;;;;;;;;;;5052285;28;20526;-79
2023/07/08 09:49:17;;;;;;;2.17;1.70;;;;;;;;;;5052033;28;20491;-79
2023/07/08 09:51:44;;;;;;;1.93;1.70;;;;;;;;;;5052137;28;20466;-77
2023/07/08 09:54:10;;;;;;;2.73;1.80;;;;;;;;;;5053670;28;20412;-78
2023/07/08 09:56:39;;;;;;;5.20;1.83;;;;;;;;;;5056150;28;20917;-79
2023/07/08 09:59:05;;;;;;;2.50;1.80;;;;;;;;;;5055875;28;20170;-81
2023/07/08 10:01:31;;;;;;;33.17;13.27;;;;;;;;;;5055431;28;20411;-81
2023/07/08 10:04:03;;;;;;;3.70;2.97;;;;;;;;;;5055560;28;20186;-81
2023/07/08 10:06:32;;;;;;;11.33;3.97;;;;;;;;;;5055611;28;20527;-81
2023/07/08 10:09:05;;;;;;;2.70;1.40;;;;;;;;;;5055413;28;20420;-80
2023/07/08 10:11:43;;;;;;;2.07;1.73;;;;;;;;;;5055550;28;20475;-81
2023/07/08 10:14:12;;;;;;;2.30;1.43;;;;;;;;;;5052031;28;20448;-81
2023/07/08 10:16:38;;;;;;;2.60;1.90;;;;;;;;;;5035777;28;20409;-81
2023/07/08 10:19:13;;;;;;;2.53;2.10;;;;;;;;;;5035604;28;20420;-81
2023/07/08 10:21:45;;;;;;;1.40;1.23;;;;;;;;;;5045132;28;20474;-81
2023/07/08 10:24:21;;;;;;;3.23;1.73;;;;;;;;;;5054980;28;20408;-79
2023/07/08 10:26:50;;;;;;;1.63;1.50;;;;;;;;;;5039208;28;20424;-80
2023/07/08 10:29:15;;;;;;;3.40;1.30;;;;;;;;;;5033718;28;20417;-80
2023/07/08 10:31:49;;;;;;;2.77;1.63;;;;;;;;;;5032625;28;21019;-80
2023/07/08 10:34:25;;;;;;;3.20;1.20;;;;;;;;;;5035889;28;20529;-80
2023/07/08 10:36:54;;;;;;;3.40;1.90;;;;;;;;;;5032665;28;20420;-78
2023/07/08 10:39:34;;;;;;;2.10;1.23;;;;;;;;;;5034396;28;20904;-80
2023/07/08 10:42:19;;;;;;;2.37;1.60;;;;;;;;;;5034257;28;20420;-79
2023/07/08 10:45:11;;;;;;;1.93;1.47;;;;;;;;;;5035527;28;20424;-79
2023/07/08 10:47:37;;;;;;;2.60;1.73;;;;;;;;;;5038024;28;20423;-79
2023/07/08 10:50:14;;;;;;;4.63;2.00;;;;;;;;;;5054403;28;20773;-79
2023/07/08 10:53:04;;;;;;;2.90;1.60;;;;;;;;;;5047892;28;20225;-80
2023/07/08 10:55:36;;;;;;;1.97;1.20;;;;;;;;;;5045454;28;20440;-79
2023/07/08 10:58:13;;;;;;;2.80;1.87;;;;;;;;;;5051928;28;20415;-79
2023/07/08 11:00:47;;;;;;;1.13;1.00;;;;;;;;;;5051863;28;20487;-79
2023/07/08 11:03:35;;;;;;;1.90;1.33;;;;;;;;;;5051993;28;20416;-80
2023/07/08 11:06:03;;;;;;;2.10;1.90;;;;;;;;;;5050049;28;20416;-79
2023/07/08 11:08:41;;;;;;;2.00;1.10;;;;;;;;;;5053709;28;20498;-79
2023/07/08 11:11:10;;;;;;;3.10;1.93;;;;;;;;;;5034380;28;20500;-80
2023/07/08 11:13:44;;;;;;;4.23;1.97;;;;;;;;;;5034669;28;20413;-79
2023/07/08 11:16:13;;;;;;;2.50;1.90;;;;;;;;;;5034667;28;20996;-79
2023/07/08 11:18:41;;;;;;;3.50;2.00;;;;;;;;;;5034365;28;20470;-80
2023/07/08 11:21:10;;;;;;;2.33;1.73;;;;;;;;;;5046593;28;20515;-80
2023/07/08 11:23:54;;;;;;;2.80;1.60;;;;;;;;;;5051881;28;20470;-80
2023/07/08 11:26:24;;;;;;;3.83;1.50;;;;;;;;;;5051810;28;20416;-80
2023/07/08 11:28:52;;;;;;;2.47;1.87;;;;;;;;;;5054435;28;20994;-80
2023/07/08 11:31:18;;;;;;;4.70;1.87;;;;;;;;;;5051393;28;20461;-80
2023/07/08 11:33:44;;;;;;;2.87;2.27;;;;;;;;;;5050350;28;20506;-80
2023/07/08 11:36:11;;;;;;;2.30;1.40;;;;;;;;;;5050374;28;20416;-80
2023/07/08 11:38:38;;;;;;;1.50;1.13;;;;;;;;;;5047440;28;20467;-79
2023/07/08 11:41:11;;;;;;;1.87;1.50;;;;;;;;;;5050672;28;20470;-79
2023/07/08 11:43:57;;;;;;;2.20;1.87;;;;;;;;;;5052662;28;20470;-80
2023/07/08 11:46:25;;;;;;;3.03;1.80;;;;;;;;;;5047713;28;20451;-80
2023/07/08 11:48:53;;;;;;;3.00;1.50;;;;;;;;;;5054264;28;20412;-79
2023/07/08 11:51:21;;;;;;;1.70;1.60;;;;;;;;;;5053621;28;20837;-80
2023/07/08 11:53:48;;;;;;;1.97;1.53;;;;;;;;;;5053033;28;20424;-78
2023/07/08 11:56:17;;;;;;;3.20;1.43;;;;;;;;;;5052535;28;20420;-81
2023/07/08 11:58:49;;;;;;;1.80;1.30;;;;;;;;;;5054182;28;20416;-80
2023/07/08 12:01:15;;;;;;;2.33;1.60;;;;;;;;;;5054190;28;20416;-80
2023/07/08 12:03:48;;;;;;;2.17;1.53;;;;;;;;;;5054018;28;20416;-81
2023/07/08 12:06:27;;;;;;;2.90;1.90;;;;;;;;;;5052725;28;20182;-83
2023/07/08 12:08:59;;;;;;;2.20;1.83;;;;;;;;;;5053552;28;20408;-83
2023/07/08 12:11:31;;;;;;;1.97;1.30;;;;;;;;;;5053264;28;20483;-82
2023/07/08 12:13:59;;;;;;;2.67;1.80;;;;;;;;;;5053861;28;20408;-82
2023/07/08 12:16:25;;;;;;;1.70;1.60;;;;;;;;;;5052745;28;20412;-80
2023/07/08 12:18:53;;;;;;;2.40;1.80;;;;;;;;;;5053670;28;20412;-81
2023/07/08 12:21:19;;;;;;;2.40;1.63;;;;;;;;;;5053723;28;20420;-81
2023/07/08 12:23:46;;;;;;;1.67;1.47;;;;;;;;;;5053377;28;20421;-82
2023/07/08 12:26:12;;;;;;;3.80;1.90;;;;;;;;;;5053425;28;20456;-82
2023/07/08 12:28:39;;;;;;;2.70;2.00;;;;;;;;;;5052306;28;20485;-82
2023/07/08 12:31:14;;;;;;;1.83;1.40;;;;;;;;;;5053338;28;21085;-81
2023/07/08 12:33:40;;;;;;;2.03;1.47;;;;;;;;;;5053454;28;20451;-81
2023/07/08 12:36:06;;;;;;;2.70;1.73;;;;;;;;;;5052482;28;20444;-81
2023/07/08 12:38:34;;;;;;;2.67;1.90;;;;;;;;;;5053016;28;20482;-82
2023/07/08 12:41:01;;;;;;;3.10;1.50;;;;;;;;;;5053459;28;20407;-81
2023/07/08 12:43:27;;;;;;;1.97;1.73;;;;;;;;;;5053382;28;20858;-79
2023/07/08 12:45:53;;;;;;;5.37;2.47;;;;;;;;;;5047010;28;20433;-79
2023/07/08 12:48:19;;;;;;;1.77;1.50;;;;;;;;;;5038399;28;20532;-79
2023/07/08 12:50:45;;;;;;;2.10;1.77;;;;;;;;;;5037711;28;20211;-78
2023/07/08 12:53:12;;;;;;;3.13;2.07;;;;;;;;;;5037622;28;20217;-79
2023/07/08 12:55:39;;;;;;;2.70;2.03;;;;;;;;;;5037727;28;20254;-79
2023/07/08 12:58:06;;;;;;;2.60;2.40;;;;;;;;;;5037922;28;20467;-79
2023/07/08 13:00:35;;;;;;;2.50;1.87;;;;;;;;;;5037914;28;20436;-79
2023/07/08 13:03:05;;;;;;;2.50;1.70;;;;;;;;;;5037535;28;20453;-78
2023/07/08 13:05:31;;;;;;;2.77;2.00;;;;;;;;;;5037636;28;20441;-79
2023/07/08 13:07:57;;;;;;;3.60;2.03;;;;;;;;;;5036981;28;20486;-79
2023/07/08 13:10:26;;;;;;;2.43;2.20;;;;;;;;;;5036673;28;20187;-79
2023/07/08 13:12:54;;;;;;;3.03;2.23;;;;;;;;;;5037727;28;20538;-79
2023/07/08 13:15:23;;;;;;;3.07;1.90;;;;;;;;;;5037948;28;20687;-79
2023/07/08 13:17:49;;;;;;;3.83;1.80;;;;;;;;;;5038116;28;20827;-79
2023/07/08 13:20:16;;;;;;;4.10;1.90;;;;;;;;;;5042649;28;20420;-80
2023/07/08 13:22:45;;;;;;;1.80;1.70;;;;;;;;;;5052481;28;20998;-78
2023/07/08 13:25:15;;;;;;;2.90;2.30;;;;;;;;;;5052659;28;20404;-79
2023/07/08 13:27:40;;;;;;;1.87;1.73;;;;;;;;;;5053924;28;20408;-80
2023/07/08 13:30:16;;;;;;;2.87;2.20;;;;;;;;;;5056910;28;20522;-80
2023/07/08 13:32:42;;;;;;;2.77;2.03;;;;;;;;;;5056832;28;20248;-80
2023/07/08 13:35:21;;;;;;;3.27;2.33;;;;;;;;;;5056862;28;20404;-81
2023/07/08 13:37:49;;;;;;;3.03;2.13;;;;;;;;;;5056322;28;20183;-82
2023/07/08 13:40:15;;;;;;;3.17;2.87;;;;;;;;;;5056745;28;20463;-82
2023/07/08 13:42:47;;;;;;;3.03;2.73;;;;;;;;;;5056734;28;20444;-82
2023/07/08 13:45:14;;;;;;;4.57;2.40;;;;;;;;;;5055438;28;20415;-81
2023/07/08 13:47:40;;;;;;;2.53;2.00;;;;;;;;;;5056646;28;20412;-82
2023/07/08 13:50:19;;;;;;;2.67;2.30;;;;;;;;;;5056586;28;20407;-82
2023/07/08 13:52:45;;;;;;;2.40;1.67;;;;;;;;;;5056213;28;20630;-81
2023/07/08 13:55:17;;;;;;;2.60;2.40;;;;;;;;;;5056417;28;20503;-82
2023/07/08 13:57:43;;;;;;;2.50;2.30;;;;;;;;;;5056457;28;20859;-81
2023/07/08 14:00:09;;;;;;;2.80;2.60;;;;;;;;;;5056349;28;20436;-81
2023/07/08 14:02:36;;;;;;;3.80;2.37;;;;;;;;;;5056339;28;20174;-81
2023/07/08 14:05:04;;;;;;;2.60;2.40;;;;;;;;;;5056320;28;20457;-81
2023/07/08 14:07:31;;;;;;;4.10;2.00;;;;;;;;;;5055934;28;20975;-81
2023/07/08 14:09:57;;;;;;;6.23;2.87;;;;;;;;;;5056203;28;20419;-81
2023/07/08 14:12:23;;;;;;;4.90;2.47;;;;;;;;;;5055936;28;20483;-79
2023/07/08 14:14:49;;;;;;;6.70;2.10;;;;;;;;;;5056206;28;20177;-78
2023/07/08 14:17:21;;;;;;;4.67;2.30;;;;;;;;;;5056022;28;20905;-79
2023/07/08 14:19:47;;;;;;;2.67;2.43;;;;;;;;;;5056010;28;20180;-81
2023/07/08 14:22:13;;;;;;;4.20;2.23;;;;;;;;;;5055620;28;20401;-81
2023/07/08 14:24:39;;;;;;;2.57;2.30;;;;;;;;;;5054664;28;20420;-81
2023/07/08 14:27:05;;;;;;;3.70;2.50;;;;;;;;;;5055905;28;20408;-80
2023/07/08 14:29:31;;;;;;;2.50;2.30;;;;;;;;;;5055782;28;20447;-80
2023/07/08 14:32:00;;;;;;;2.63;2.23;;;;;;;;;;5054433;28;20896;-81
2023/07/08 14:34:26;;;;;;;3.90;2.87;;;;;;;;;;5055816;28;20173;-81
2023/07/08 14:36:53;;;;;;;2.90;2.20;;;;;;;;;;5055744;28;20923;-81
2023/07/08 14:39:19;;;;;;;6.30;2.70;;;;;;;;;;5054641;28;20762;-81
2023/07/08 14:41:47;;;;;;;4.40;2.17;;;;;;;;;;5058229;28;20413;-80
2023/07/08 14:44:20;;;;;;;3.33;2.07;;;;;;;;;;5059220;28;20412;-81
2023/07/08 14:46:46;;;;;;;4.20;2.70;;;;;;;;;;5055812;28;20555;-81
2023/07/08 14:49:16;;;;;;;4.53;2.30;;;;;;;;;;5055613;28;20423;-80